Terminal Aerodrome Forecast
Issued by NWS Pocatello, ID

Home | Current Version | Previous Version | Text Only | Print | Product List | Glossary On
Versions: 1 2 3 4 5 6 7 8 9 10 11 12 13 14 15 16
000
FTUS45 KPIH 240553 AAA
TAFIDA
TAF AMD
KIDA 240553Z 2406/2506 VRB06KT P6SM OVC060
      TEMPO 2406/2409 2SM BR
     FM240900 VRB06KT P6SM VCSH SCT020 OVC035
     FM241700 01007KT P6SM -SHRA VCTS OVC050CB
     FM250300 VRB06KT P6SM VCSH OVC070=

USA.gov is the U.S. government's official web portal to all federal, state and local government web resources and services.